Basic Brave — 3EVG4 — position and weather

sailwx.info

Track history (hours):
 
Tides and Currents Weather Stations Pressure Air Temp Water Temp Dewpoint Dewpoint Depression Visibility Wind Speed Wind Dir Waves Ship Positions

Basic Brave

Last reported at 2018-Jan-17 18:00 UTC. Time now 2018-Jan-20 13:05 UTC.
Position N 54°18' W 164°42'.

Length 180 m; draft 9.6 m.

Type: Cargo ship. MMSI: 373701000.

Wind from 320 at 20 knots

Barometer 1001.0 mb
Air temperature -1.0 ° C
Visibility: greater than 5.4 NM
Water temperature 5.0 ° C

Date/timePositionNaut miles runAvg speedWind from/ knotsBaromVisibWave heightAir tempDewpointWater temp
2018-Jan-17 18:00N 54°18' W 164°42'   320 / 201001.0 5.4 -1.0 5.0
2018-Jan-14 19:00N 51°24' W 144°36'   320 / 10999.0 3.0 6.0
2018-Jan-11 17:35N 48°34' W 126°06'111.8
2018-Jan-11 17:30N 48°34' W 126°05'611.5
2018-Jan-11 17:00N 48°34' W 125°56'611.2
2018-Jan-11 16:30N 48°33' W 125°48'611.7
2018-Jan-11 16:00N 48°33' W 125°39'611.7
2018-Jan-11 15:30N 48°32' W 125°30'611.6
2018-Jan-11 15:00N 48°32' W 125°22'611.8
2018-Jan-11 14:30N 48°31' W 125°12'611.8
2018-Jan-11 13:58N 48°31' W 125°03'511.9
2018-Jan-11 13:30N 48°31' W 124°55'611.7
2018-Jan-11 13:00N 48°31' W 124°46'611.6
2018-Jan-11 12:30N 48°29' W 124°38'612.3
2018-Jan-11 12:00N 48°27' W 124°29'612.4
2018-Jan-11 11:30N 48°24' W 124°20'612.3
2018-Jan-11 11:00N 48°22' W 124°12'612.1
2018-Jan-11 10:30N 48°20' W 124°04'612.3
2018-Jan-11 10:00N 48°17' W 123°55'612.1
2018-Jan-11 09:29N 48°16' W 123°45'711.6
2018-Jan-11 08:54N 48°16' W 123°35'410.1
2018-Jan-11 08:29N 48°16' W 123°29'511.0
2018-Jan-11 08:00N 48°21' W 123°25'4 8.6
2018-Jan-11 07:30N 48°23' W 123°20'4 8.9
2018-Jan-11 07:00N 48°25' W 123°13'5 9.5
2018-Jan-11 06:30N 48°29' W 123°12'611.2
2018-Jan-11 06:00N 48°35' W 123°13'611.3
2018-Jan-11 05:30N 48°40' W 123°15'510.8
2018-Jan-11 05:00N 48°44' W 123°09'611.2
2018-Jan-11 04:30N 48°47' W 123°02'5 9.9
2018-Jan-11 04:00N 48°52' W 123°05'612.1
2018-Jan-11 03:30N 48°56' W 123°11'612.4
2018-Jan-11 03:00N 49°00' W 123°18'612.0
2018-Jan-11 02:30N 49°05' W 123°24'612.2
2018-Jan-11 02:00N 49°11' W 123°22'612.2
2018-Jan-11 01:29N 49°17' W 123°19'611.5
2018-Jan-11 01:00N 49°19' W 123°12'4 7.2
2018-Jan-11 00:30N 49°18' W 123°06'0 0.0
2018-Jan-10 23:58N 49°19' W 123°06'0 0.0
2018-Jan-10 23:28N 49°19' W 123°06'0 0.0
2018-Jan-10 22:58N 49°18' W 123°06'0 0.0
2018-Jan-10 22:28N 49°18' W 123°06'0 0.0
2018-Jan-10 21:58N 49°18' W 123°06'0 0.0
2018-Jan-10 21:28N 49°18' W 123°06'0 0.0
2018-Jan-10 20:58N 49°18' W 123°06'0 0.0
2018-Jan-10 20:28N 49°18' W 123°06'0 0.1
2018-Jan-10 19:58N 49°18' W 123°07'0 0.0
2018-Jan-10 19:28N 49°18' W 123°07'0 0.0
2018-Jan-10 18:58N 49°18' W 123°07'0 0.0
2018-Jan-10 18:28N 49°18' W 123°07'0 0.0
2018-Jan-10 17:58N 49°18' W 123°07'0 0.0
2018-Jan-10 17:28N 49°18' W 123°07'0 0.0
2018-Jan-10 16:58N 49°18' W 123°07'0 0.0
2018-Jan-10 16:28N 49°18' W 123°07'0 0.0
2018-Jan-10 15:58N 49°18' W 123°07'0 0.0
2018-Jan-10 15:28N 49°18' W 123°07'0 0.0
2018-Jan-10 14:58N 49°18' W 123°07'0 0.0
2018-Jan-10 14:28N 49°18' W 123°07'0 0.0
2018-Jan-10 13:58N 49°18' W 123°07'0 0.0
2018-Jan-10 13:28N 49°18' W 123°07'0 0.0
2018-Jan-10 12:58N 49°18' W 123°07'0 0.0
2018-Jan-10 12:28N 49°18' W 123°07'0 0.0
2018-Jan-10 11:58N 49°18' W 123°07'0 0.0
2018-Jan-10 11:28N 49°18' W 123°07'0 0.0
2018-Jan-10 10:58N 49°18' W 123°07'0 0.0
2018-Jan-10 10:28N 49°18' W 123°07'0 0.0
2018-Jan-10 09:58N 49°18' W 123°07'0 0.0
2018-Jan-10 09:28N 49°18' W 123°07'0 0.0
2018-Jan-10 08:58N 49°18' W 123°07'0 0.0
2018-Jan-10 08:28N 49°18' W 123°07'0 0.0
2018-Jan-10 07:58N 49°18' W 123°07'0 0.0
2018-Jan-10 07:28N 49°18' W 123°07'0 0.0
2018-Jan-10 06:58N 49°18' W 123°07'0 0.0
2018-Jan-10 06:28N 49°18' W 123°07'0 0.0
2018-Jan-10 05:58N 49°18' W 123°07'0 0.0
2018-Jan-10 05:28N 49°18' W 123°07'0 0.0
2018-Jan-10 04:58N 49°18' W 123°07'0 0.0
2018-Jan-10 04:28N 49°18' W 123°07'0 0.0
2018-Jan-10 03:58N 49°18' W 123°07'0 0.0
2018-Jan-10 03:28N 49°18' W 123°07'0 0.0
2018-Jan-10 02:58N 49°18' W 123°07'0 0.0
2018-Jan-10 02:28N 49°18' W 123°07'0 0.0
2018-Jan-10 01:58N 49°18' W 123°07'0 0.0
2018-Jan-10 01:28N 49°18' W 123°07'0 0.0
2018-Jan-10 00:58N 49°18' W 123°07'0 0.0
2018-Jan-10 00:28N 49°18' W 123°07'0 0.0
2018-Jan-09 23:58N 49°18' W 123°07'0 0.0
2018-Jan-09 23:28N 49°18' W 123°07'0 0.0
2018-Jan-09 22:58N 49°18' W 123°07'0 0.0
2018-Jan-09 22:28N 49°18' W 123°07'0 0.0
2018-Jan-09 21:58N 49°18' W 123°07'0 0.0
2018-Jan-09 21:28N 49°18' W 123°07'0 0.0
2018-Jan-09 20:58N 49°18' W 123°07'0 0.0
2018-Jan-09 20:28N 49°18' W 123°07'0 0.0
2018-Jan-09 19:58N 49°18' W 123°07'0 0.0
2018-Jan-09 19:28N 49°18' W 123°07'0 0.0
2018-Jan-09 18:58N 49°18' W 123°07'0 0.0
2018-Jan-09 18:28N 49°18' W 123°07'0 0.0
2018-Jan-09 17:58N 49°18' W 123°07'0 0.0
2018-Jan-09 17:28N 49°18' W 123°07'0 0.0
2018-Jan-09 16:58N 49°18' W 123°07'0 0.0
2018-Jan-09 16:28N 49°18' W 123°07'0 0.0
2018-Jan-09 15:58N 49°18' W 123°07'0 0.0
2018-Jan-09 15:28N 49°18' W 123°07'0 0.0
2018-Jan-09 14:58N 49°18' W 123°07'0 0.0
2018-Jan-09 14:28N 49°18' W 123°07'0 0.0
2018-Jan-09 13:58N 49°18' W 123°07'0 0.0
2018-Jan-09 13:28N 49°18' W 123°07'0 0.0
2018-Jan-09 12:58N 49°18' W 123°07'0 0.0
2018-Jan-09 12:28N 49°18' W 123°07'0 0.0
2018-Jan-09 11:58N 49°18' W 123°07'0 0.0
2018-Jan-09 11:28N 49°18' W 123°07'0 0.0
2018-Jan-09 10:58N 49°18' W 123°07'0 0.0
2018-Jan-09 10:28N 49°18' W 123°07'0 0.0
2018-Jan-09 09:58N 49°18' W 123°07'0 0.0
2018-Jan-09 09:28N 49°18' W 123°07'0 0.0
2018-Jan-09 08:58N 49°18' W 123°07'0 0.0
2018-Jan-09 08:28N 49°18' W 123°07'0 0.0
2018-Jan-09 07:58N 49°18' W 123°07'0 0.0
2018-Jan-09 07:28N 49°18' W 123°07'0 0.0
2018-Jan-09 06:58N 49°18' W 123°07'0 0.0
2018-Jan-09 06:28N 49°18' W 123°07'0 0.0
2018-Jan-09 05:58N 49°18' W 123°07'0 0.0
2018-Jan-09 05:28N 49°18' W 123°07'0 0.0
2018-Jan-09 04:58N 49°18' W 123°07'0 0.0
2018-Jan-09 04:28N 49°18' W 123°07'0 0.0
2018-Jan-09 03:58N 49°18' W 123°07'0 0.0
2018-Jan-09 03:28N 49°18' W 123°07'0 0.0
2018-Jan-09 02:59N 49°18' W 123°07'0 0.0
2018-Jan-09 02:28N 49°18' W 123°07'0 0.0
2018-Jan-09 01:58N 49°18' W 123°07'0 0.0
2018-Jan-09 01:28N 49°18' W 123°07'0 0.0
2018-Jan-09 00:58N 49°18' W 123°07'0 0.0
2018-Jan-09 00:28N 49°18' W 123°07'0 0.0
2018-Jan-08 23:58N 49°18' W 123°07'0 0.0
2018-Jan-08 23:28N 49°18' W 123°07'0 0.0
2018-Jan-08 22:58N 49°18' W 123°07'0 0.0
2018-Jan-08 22:28N 49°18' W 123°07'0 0.0
2018-Jan-08 21:58N 49°18' W 123°07'0 0.0
2018-Jan-08 21:28N 49°18' W 123°07'0 0.0
2018-Jan-08 20:58N 49°18' W 123°07'0 0.0
2018-Jan-08 20:28N 49°18' W 123°07'0 0.0
2018-Jan-08 19:58N 49°18' W 123°07'0 0.0
2018-Jan-08 19:28N 49°18' W 123°07'0 0.0
2018-Jan-08 18:58N 49°18' W 123°07'0 0.0
2018-Jan-08 18:28N 49°18' W 123°07'0 0.0
2018-Jan-08 17:58N 49°18' W 123°07'0 0.0
2018-Jan-08 17:28N 49°18' W 123°07'0 0.0
2018-Jan-08 16:58N 49°18' W 123°07'0 0.0
2018-Jan-08 16:28N 49°18' W 123°07'0 0.0
2018-Jan-08 15:58N 49°18' W 123°07'0 0.0
2018-Jan-08 15:28N 49°18' W 123°07'0 0.0
2018-Jan-08 14:58N 49°18' W 123°07'0 0.0
2018-Jan-08 14:28N 49°18' W 123°07'0 0.0
2018-Jan-08 13:58N 49°18' W 123°07'0 0.0
2018-Jan-08 13:28N 49°18' W 123°07'0 0.0
2018-Jan-08 12:58N 49°18' W 123°07'0 0.0
2018-Jan-08 12:28N 49°18' W 123°07'0 0.0
2018-Jan-08 11:58N 49°18' W 123°07'0 0.0
2018-Jan-08 11:28N 49°18' W 123°07'0 0.0
2018-Jan-08 10:58N 49°18' W 123°07'0 0.0
2018-Jan-08 10:28N 49°18' W 123°07'0 0.0
2018-Jan-08 09:58N 49°18' W 123°07'0 0.0
2018-Jan-08 09:28N 49°18' W 123°07'0 0.0
2018-Jan-08 08:58N 49°18' W 123°07'0 0.0
2018-Jan-08 08:28N 49°18' W 123°07'0 0.0
2018-Jan-08 07:58N 49°18' W 123°07'0 0.0
2018-Jan-08 07:28N 49°18' W 123°07'0 0.0
2018-Jan-08 06:58N 49°18' W 123°07'0 0.0
2018-Jan-08 06:28N 49°18' W 123°07'0 0.0
2018-Jan-08 05:58N 49°18' W 123°07'0 0.0
2018-Jan-08 05:28N 49°18' W 123°07'0 0.0
2018-Jan-08 04:58N 49°18' W 123°07'0 0.0
2018-Jan-08 04:28N 49°18' W 123°07'0 0.0
2018-Jan-08 03:58N 49°18' W 123°07'0 0.0
2018-Jan-08 03:28N 49°18' W 123°07'0 0.0
2018-Jan-08 02:58N 49°18' W 123°07'0 0.0
2018-Jan-08 02:28N 49°18' W 123°07'0 0.0
2018-Jan-08 01:59N 49°18' W 123°07'0 0.0
2018-Jan-08 01:28N 49°18' W 123°07'0 0.0
2018-Jan-08 00:58N 49°18' W 123°07'0 0.0
2018-Jan-08 00:28N 49°18' W 123°07'0 0.0
2018-Jan-07 23:58N 49°18' W 123°07'0 0.0
2018-Jan-07 23:28N 49°18' W 123°07'0 0.0
2018-Jan-07 22:58N 49°18' W 123°07'0 0.0
2018-Jan-07 22:28N 49°18' W 123°07'0 0.0
2018-Jan-07 21:58N 49°18' W 123°07'0 0.0
2018-Jan-07 21:28N 49°18' W 123°07'0 0.0
2018-Jan-07 20:58N 49°18' W 123°07'0 0.0
2018-Jan-07 20:28N 49°18' W 123°07'0 0.0
2018-Jan-07 19:58N 49°18' W 123°07'0 0.0
2018-Jan-07 19:28N 49°18' W 123°07'0 0.0
2018-Jan-07 18:58N 49°18' W 123°07'0 0.0
2018-Jan-07 18:28N 49°18' W 123°07'  
Track history (hours):
 
Tides and Currents Weather Stations Pressure Air Temp Water Temp Dewpoint Dewpoint Depression Visibility Wind Speed Wind Dir Waves Ship Positions

Basic Brave

Last reported at 2018-Jan-17 18:00 UTC. Time now 2018-Jan-20 13:05 UTC.
Position N 54°18' W 164°42'.

Length 180 m; draft 9.6 m.

Type: Cargo ship. MMSI: 373701000.

Wind from 320 at 20 knots

Barometer 1001.0 mb
Air temperature -1.0 ° C
Visibility: greater than 5.4 NM
Water temperature 5.0 ° C

Date/timePositionNaut miles runAvg speedWind from/ knotsBaromVisibWave heightAir tempDewpointWater temp
2018-Jan-17 18:00N 54°18' W 164°42'   320 / 201001.0 5.4 -1.0 5.0
2018-Jan-14 19:00N 51°24' W 144°36'   320 / 10999.0 3.0 6.0
2018-Jan-11 17:35N 48°34' W 126°06'111.8
2018-Jan-11 17:30N 48°34' W 126°05'611.5
2018-Jan-11 17:00N 48°34' W 125°56'611.2
2018-Jan-11 16:30N 48°33' W 125°48'611.7
2018-Jan-11 16:00N 48°33' W 125°39'611.7
2018-Jan-11 15:30N 48°32' W 125°30'611.6
2018-Jan-11 15:00N 48°32' W 125°22'611.8
2018-Jan-11 14:30N 48°31' W 125°12'611.8
2018-Jan-11 13:58N 48°31' W 125°03'511.9
2018-Jan-11 13:30N 48°31' W 124°55'611.7
2018-Jan-11 13:00N 48°31' W 124°46'611.6
2018-Jan-11 12:30N 48°29' W 124°38'612.3
2018-Jan-11 12:00N 48°27' W 124°29'612.4
2018-Jan-11 11:30N 48°24' W 124°20'612.3
2018-Jan-11 11:00N 48°22' W 124°12'612.1
2018-Jan-11 10:30N 48°20' W 124°04'612.3
2018-Jan-11 10:00N 48°17' W 123°55'612.1
2018-Jan-11 09:29N 48°16' W 123°45'711.6
2018-Jan-11 08:54N 48°16' W 123°35'410.1
2018-Jan-11 08:29N 48°16' W 123°29'511.0
2018-Jan-11 08:00N 48°21' W 123°25'4 8.6
2018-Jan-11 07:30N 48°23' W 123°20'4 8.9
2018-Jan-11 07:00N 48°25' W 123°13'5 9.5
2018-Jan-11 06:30N 48°29' W 123°12'611.2
2018-Jan-11 06:00N 48°35' W 123°13'611.3
2018-Jan-11 05:30N 48°40' W 123°15'510.8
2018-Jan-11 05:00N 48°44' W 123°09'611.2
2018-Jan-11 04:30N 48°47' W 123°02'5 9.9
2018-Jan-11 04:00N 48°52' W 123°05'612.1
2018-Jan-11 03:30N 48°56' W 123°11'612.4
2018-Jan-11 03:00N 49°00' W 123°18'612.0
2018-Jan-11 02:30N 49°05' W 123°24'612.2
2018-Jan-11 02:00N 49°11' W 123°22'612.2
2018-Jan-11 01:29N 49°17' W 123°19'611.5
2018-Jan-11 01:00N 49°19' W 123°12'4 7.2
2018-Jan-11 00:30N 49°18' W 123°06'0 0.0
2018-Jan-10 23:58N 49°19' W 123°06'0 0.0
2018-Jan-10 23:28N 49°19' W 123°06'0 0.0
2018-Jan-10 22:58N 49°18' W 123°06'0 0.0
2018-Jan-10 22:28N 49°18' W 123°06'0 0.0
2018-Jan-10 21:58N 49°18' W 123°06'0 0.0
2018-Jan-10 21:28N 49°18' W 123°06'0 0.0
2018-Jan-10 20:58N 49°18' W 123°06'0 0.0
2018-Jan-10 20:28N 49°18' W 123°06'0 0.1
2018-Jan-10 19:58N 49°18' W 123°07'0 0.0
2018-Jan-10 19:28N 49°18' W 123°07'0 0.0
2018-Jan-10 18:58N 49°18' W 123°07'0 0.0
2018-Jan-10 18:28N 49°18' W 123°07'0 0.0
2018-Jan-10 17:58N 49°18' W 123°07'0 0.0
2018-Jan-10 17:28N 49°18' W 123°07'0 0.0
2018-Jan-10 16:58N 49°18' W 123°07'0 0.0
2018-Jan-10 16:28N 49°18' W 123°07'0 0.0
2018-Jan-10 15:58N 49°18' W 123°07'0 0.0
2018-Jan-10 15:28N 49°18' W 123°07'0 0.0
2018-Jan-10 14:58N 49°18' W 123°07'0 0.0
2018-Jan-10 14:28N 49°18' W 123°07'0 0.0
2018-Jan-10 13:58N 49°18' W 123°07'0 0.0
2018-Jan-10 13:28N 49°18' W 123°07'0 0.0
2018-Jan-10 12:58N 49°18' W 123°07'0 0.0
2018-Jan-10 12:28N 49°18' W 123°07'0 0.0
2018-Jan-10 11:58N 49°18' W 123°07'0 0.0
2018-Jan-10 11:28N 49°18' W 123°07'0 0.0
2018-Jan-10 10:58N 49°18' W 123°07'0 0.0
2018-Jan-10 10:28N 49°18' W 123°07'0 0.0
2018-Jan-10 09:58N 49°18' W 123°07'0 0.0
2018-Jan-10 09:28N 49°18' W 123°07'0 0.0
2018-Jan-10 08:58N 49°18' W 123°07'0 0.0
2018-Jan-10 08:28N 49°18' W 123°07'0 0.0
2018-Jan-10 07:58N 49°18' W 123°07'0 0.0
2018-Jan-10 07:28N 49°18' W 123°07'0 0.0
2018-Jan-10 06:58N 49°18' W 123°07'0 0.0
2018-Jan-10 06:28N 49°18' W 123°07'0 0.0
2018-Jan-10 05:58N 49°18' W 123°07'0 0.0
2018-Jan-10 05:28N 49°18' W 123°07'0 0.0
2018-Jan-10 04:58N 49°18' W 123°07'0 0.0
2018-Jan-10 04:28N 49°18' W 123°07'0 0.0
2018-Jan-10 03:58N 49°18' W 123°07'0 0.0
2018-Jan-10 03:28N 49°18' W 123°07'0 0.0
2018-Jan-10 02:58N 49°18' W 123°07'0 0.0
2018-Jan-10 02:28N 49°18' W 123°07'0 0.0
2018-Jan-10 01:58N 49°18' W 123°07'0 0.0
2018-Jan-10 01:28N 49°18' W 123°07'0 0.0
2018-Jan-10 00:58N 49°18' W 123°07'0 0.0
2018-Jan-10 00:28N 49°18' W 123°07'0 0.0
2018-Jan-09 23:58N 49°18' W 123°07'0 0.0
2018-Jan-09 23:28N 49°18' W 123°07'0 0.0
2018-Jan-09 22:58N 49°18' W 123°07'0 0.0
2018-Jan-09 22:28N 49°18' W 123°07'0 0.0
2018-Jan-09 21:58N 49°18' W 123°07'0 0.0
2018-Jan-09 21:28N 49°18' W 123°07'0 0.0
2018-Jan-09 20:58N 49°18' W 123°07'0 0.0
2018-Jan-09 20:28N 49°18' W 123°07'0 0.0
2018-Jan-09 19:58N 49°18' W 123°07'0 0.0
2018-Jan-09 19:28N 49°18' W 123°07'0 0.0
2018-Jan-09 18:58N 49°18' W 123°07'0 0.0
2018-Jan-09 18:28N 49°18' W 123°07'0 0.0
2018-Jan-09 17:58N 49°18' W 123°07'0 0.0
2018-Jan-09 17:28N 49°18' W 123°07'0 0.0
2018-Jan-09 16:58N 49°18' W 123°07'0 0.0
2018-Jan-09 16:28N 49°18' W 123°07'0 0.0
2018-Jan-09 15:58N 49°18' W 123°07'0 0.0
2018-Jan-09 15:28N 49°18' W 123°07'0 0.0
2018-Jan-09 14:58N 49°18' W 123°07'0 0.0
2018-Jan-09 14:28N 49°18' W 123°07'0 0.0
2018-Jan-09 13:58N 49°18' W 123°07'0 0.0
2018-Jan-09 13:28N 49°18' W 123°07'0 0.0
2018-Jan-09 12:58N 49°18' W 123°07'0 0.0
2018-Jan-09 12:28N 49°18' W 123°07'0 0.0
2018-Jan-09 11:58N 49°18' W 123°07'0 0.0
2018-Jan-09 11:28N 49°18' W 123°07'0 0.0
2018-Jan-09 10:58N 49°18' W 123°07'0 0.0
2018-Jan-09 10:28N 49°18' W 123°07'0 0.0
2018-Jan-09 09:58N 49°18' W 123°07'0 0.0
2018-Jan-09 09:28N 49°18' W 123°07'0 0.0
2018-Jan-09 08:58N 49°18' W 123°07'0 0.0
2018-Jan-09 08:28N 49°18' W 123°07'0 0.0
2018-Jan-09 07:58N 49°18' W 123°07'0 0.0
2018-Jan-09 07:28N 49°18' W 123°07'0 0.0
2018-Jan-09 06:58N 49°18' W 123°07'0 0.0
2018-Jan-09 06:28N 49°18' W 123°07'0 0.0
2018-Jan-09 05:58N 49°18' W 123°07'0 0.0
2018-Jan-09 05:28N 49°18' W 123°07'0 0.0
2018-Jan-09 04:58N 49°18' W 123°07'0 0.0
2018-Jan-09 04:28N 49°18' W 123°07'0 0.0
2018-Jan-09 03:58N 49°18' W 123°07'0 0.0
2018-Jan-09 03:28N 49°18' W 123°07'0 0.0
2018-Jan-09 02:59N 49°18' W 123°07'0 0.0
2018-Jan-09 02:28N 49°18' W 123°07'0 0.0
2018-Jan-09 01:58N 49°18' W 123°07'0 0.0
2018-Jan-09 01:28N 49°18' W 123°07'0 0.0
2018-Jan-09 00:58N 49°18' W 123°07'0 0.0
2018-Jan-09 00:28N 49°18' W 123°07'0 0.0
2018-Jan-08 23:58N 49°18' W 123°07'0 0.0
2018-Jan-08 23:28N 49°18' W 123°07'0 0.0
2018-Jan-08 22:58N 49°18' W 123°07'0 0.0
2018-Jan-08 22:28N 49°18' W 123°07'0 0.0
2018-Jan-08 21:58N 49°18' W 123°07'0 0.0
2018-Jan-08 21:28N 49°18' W 123°07'0 0.0
2018-Jan-08 20:58N 49°18' W 123°07'0 0.0
2018-Jan-08 20:28N 49°18' W 123°07'0 0.0
2018-Jan-08 19:58N 49°18' W 123°07'0 0.0
2018-Jan-08 19:28N 49°18' W 123°07'0 0.0
2018-Jan-08 18:58N 49°18' W 123°07'0 0.0
2018-Jan-08 18:28N 49°18' W 123°07'0 0.0
2018-Jan-08 17:58N 49°18' W 123°07'0 0.0
2018-Jan-08 17:28N 49°18' W 123°07'0 0.0
2018-Jan-08 16:58N 49°18' W 123°07'0 0.0
2018-Jan-08 16:28N 49°18' W 123°07'0 0.0
2018-Jan-08 15:58N 49°18' W 123°07'0 0.0
2018-Jan-08 15:28N 49°18' W 123°07'0 0.0
2018-Jan-08 14:58N 49°18' W 123°07'0 0.0
2018-Jan-08 14:28N 49°18' W 123°07'0 0.0
2018-Jan-08 13:58N 49°18' W 123°07'0 0.0
2018-Jan-08 13:28N 49°18' W 123°07'0 0.0
2018-Jan-08 12:58N 49°18' W 123°07'0 0.0
2018-Jan-08 12:28N 49°18' W 123°07'0 0.0
2018-Jan-08 11:58N 49°18' W 123°07'0 0.0
2018-Jan-08 11:28N 49°18' W 123°07'0 0.0
2018-Jan-08 10:58N 49°18' W 123°07'0 0.0
2018-Jan-08 10:28N 49°18' W 123°07'0 0.0
2018-Jan-08 09:58N 49°18' W 123°07'0 0.0
2018-Jan-08 09:28N 49°18' W 123°07'0 0.0
2018-Jan-08 08:58N 49°18' W 123°07'0 0.0
2018-Jan-08 08:28N 49°18' W 123°07'0 0.0
2018-Jan-08 07:58N 49°18' W 123°07'0 0.0
2018-Jan-08 07:28N 49°18' W 123°07'0 0.0
2018-Jan-08 06:58N 49°18' W 123°07'0 0.0
2018-Jan-08 06:28N 49°18' W 123°07'0 0.0
2018-Jan-08 05:58N 49°18' W 123°07'0 0.0
2018-Jan-08 05:28N 49°18' W 123°07'0 0.0
2018-Jan-08 04:58N 49°18' W 123°07'0 0.0
2018-Jan-08 04:28N 49°18' W 123°07'0 0.0
2018-Jan-08 03:58N 49°18' W 123°07'0 0.0
2018-Jan-08 03:28N 49°18' W 123°07'0 0.0
2018-Jan-08 02:58N 49°18' W 123°07'0 0.0
2018-Jan-08 02:28N 49°18' W 123°07'0 0.0
2018-Jan-08 01:59N 49°18' W 123°07'0 0.0
2018-Jan-08 01:28N 49°18' W 123°07'0 0.0
2018-Jan-08 00:58N 49°18' W 123°07'0 0.0
2018-Jan-08 00:28N 49°18' W 123°07'0 0.0
2018-Jan-07 23:58N 49°18' W 123°07'0 0.0
2018-Jan-07 23:28N 49°18' W 123°07'0 0.0
2018-Jan-07 22:58N 49°18' W 123°07'0 0.0
2018-Jan-07 22:28N 49°18' W 123°07'0 0.0
2018-Jan-07 21:58N 49°18' W 123°07'0 0.0
2018-Jan-07 21:28N 49°18' W 123°07'0 0.0
2018-Jan-07 20:58N 49°18' W 123°07'0 0.0
2018-Jan-07 20:28N 49°18' W 123°07'0 0.0
2018-Jan-07 19:58N 49°18' W 123°07'0 0.0
2018-Jan-07 19:28N 49°18' W 123°07'0 0.0
2018-Jan-07 18:58N 49°18' W 123°07'0 0.0
2018-Jan-07 18:28N 49°18' W 123°07'  

Dump ship's entire track history